Time;durP1;ratioP1;P1;durP2;ratioP2;P2;SDS_P1;SDS_P2;PMS_P1;PMS_P2;Temp;Humidity;BMP_temperature;BMP_pressure;BME280_temperature;BME280_humidity;BME280_pressure;Samples;Min_cycle;Max_cycle;Signal;HPM_P1;HPM_P2
2022/12/15 00:38:43;;;;;;;0.95;0.93;;;-6.10;99.90;;;;;;4407738;32;20089;-67
2022/12/15 00:40:58;;;;;;;1.90;1.77;;;-6.10;99.90;;;;;;4389145;32;20525;-68
2022/12/15 00:43:25;;;;;;;2.80;2.10;;;-6.00;99.90;;;;;;4400095;32;20552;-68
2022/12/15 00:46:53;;;;;;;1.48;1.35;;;-6.20;99.90;;;;;;4418817;32;20073;-67
2022/12/15 00:48:36;;;;;;;4.82;2.42;;;-6.30;99.90;;;;;;4409972;32;20195;-67
2022/12/15 00:51:01;;;;;;;12.07;3.62;;;-6.50;99.90;;;;;;4420578;32;20520;-68
2022/12/15 01:20:17;;;;;;;7.32;4.32;;;-6.70;99.90;;;;;;4409197;32;20204;-68
2022/12/15 01:21:04;;;;;;;0.93;0.93;;;-6.80;99.90;;;;;;4415269;32;20088;-69
2022/12/15 01:23:31;;;;;;;8.35;4.57;;;-6.80;99.90;;;;;;4423855;32;20512;-67
2022/12/15 01:25:56;;;;;;;1.20;1.20;;;-6.60;99.90;;;;;;4426178;32;20079;-68
2022/12/15 01:28:23;;;;;;;1.95;1.65;;;-6.50;99.90;;;;;;4424717;32;20479;-67
2022/12/15 01:30:48;;;;;;;3.45;2.33;;;-6.40;99.90;;;;;;4402588;32;20086;-67
2022/12/15 01:33:15;;;;;;;3.53;2.20;;;-6.30;99.90;;;;;;4420185;32;20084;-68
2022/12/15 01:35:41;;;;;;;4.28;3.37;;;-6.30;99.90;;;;;;4422173;32;20069;-68
2022/12/15 01:38:08;;;;;;;4.28;1.62;;;-6.30;99.90;;;;;;4423639;32;20105;-68
2022/12/15 01:40:49;;;;;;;2.33;2.12;;;-6.30;99.90;;;;;;4411294;32;20089;-66
2022/12/15 01:43:17;;;;;;;1.67;1.58;;;-6.30;99.90;;;;;;4400885;32;20132;-68
2022/12/15 01:45:50;;;;;;;1.30;1.30;;;-6.30;99.90;;;;;;4420033;32;20054;-66
2022/12/15 01:48:23;;;;;;;0.60;0.60;;;-6.40;99.90;;;;;;4423197;32;20101;-67
2022/12/15 01:51:00;;;;;;;1.60;1.50;;;-6.60;99.90;;;;;;4423765;32;20100;-65
2022/12/15 01:53:27;;;;;;;1.05;0.98;;;-6.50;99.90;;;;;;4423755;32;20105;-68
2022/12/15 01:55:53;;;;;;;1.77;1.67;;;-6.50;99.90;;;;;;4424756;32;20224;-66
2022/12/15 01:58:19;;;;;;;2.47;1.50;;;-6.70;99.90;;;;;;4421958;32;20610;-67
2022/12/15 02:00:44;;;;;;;0.82;0.82;;;-6.60;99.90;;;;;;4405706;32;20141;-68
2022/12/15 02:03:11;;;;;;;2.47;1.87;;;-6.50;99.90;;;;;;4419687;32;20085;-67
2022/12/15 02:05:38;;;;;;;2.37;2.17;;;-6.50;99.90;;;;;;4423669;32;20081;-67
2022/12/15 02:08:04;;;;;;;10.57;4.65;;;-6.50;99.90;;;;;;4423848;32;20413;-66
2022/12/15 02:10:42;;;;;;;2.45;2.12;;;-6.50;99.90;;;;;;4410049;32;20109;-66
2022/12/15 02:13:29;;;;;;;0.93;0.93;;;-6.60;99.90;;;;;;4399693;32;20521;-68
2022/12/15 02:16:09;;;;;;;2.15;1.95;;;-6.60;99.90;;;;;;4409304;32;20086;-67
2022/12/15 02:18:48;;;;;;;15.53;5.83;;;-6.60;99.90;;;;;;4424131;32;20186;-67
2022/12/15 02:21:22;;;;;;;1.00;1.00;;;-6.70;99.90;;;;;;4425729;32;20069;-66
2022/12/15 02:24:09;;;;;;;4.37;2.62;;;-6.60;99.90;;;;;;4422373;32;20175;-67
2022/12/15 02:27:00;;;;;;;1.50;1.40;;;-6.60;99.90;;;;;;4410725;32;20120;-67
2022/12/15 02:29:55;;;;;;;0.50;0.50;;;-6.70;99.90;;;;;;4415682;32;20569;-70
2022/12/15 02:32:26;;;;;;;1.20;1.20;;;-6.80;99.90;;;;;;4399162;32;20088;-67
2022/12/15 02:35:02;;;;;;;1.12;1.10;;;-6.80;99.90;;;;;;4422042;32;20140;-67
2022/12/15 02:37:32;;;;;;;7.30;2.55;;;-6.80;99.90;;;;;;4423687;32;20073;-67
2022/12/15 02:39:58;;;;;;;;;;;-6.60;99.90;;;;;;4415048;32;20766;-67
2022/12/15 02:42:26;;;;;;;4.53;3.40;;;-6.50;99.90;;;;;;4392655;32;20044;-67
2022/12/15 02:44:59;;;;;;;0.98;0.98;;;-6.60;99.90;;;;;;4415839;32;20054;-67
2022/12/15 02:47:46;;;;;;;1.98;1.85;;;-6.70;99.90;;;;;;4423258;32;20078;-67
2022/12/15 02:50:33;;;;;;;0.95;0.93;;;-6.80;99.90;;;;;;4421472;32;20065;-67
2022/12/15 02:53:30;;;;;;;1.45;1.35;;;-6.80;99.90;;;;;;4422093;32;20470;-67
2022/12/15 02:56:03;;;;;;;2.40;2.20;;;-7.10;99.90;;;;;;4416189;32;20422;-67
2022/12/15 02:59:01;;;;;;;2.78;2.58;;;-7.20;99.90;;;;;;4421452;32;20065;-68
2022/12/15 03:01:52;;;;;;;1.37;1.30;;;-7.10;99.90;;;;;;4387752;32;20419;-68
2022/12/15 03:04:18;;;;;;;1.67;1.58;;;-7.30;99.90;;;;;;4422983;32;20090;-68
2022/12/15 03:06:44;;;;;;;5.07;3.25;;;-7.30;99.90;;;;;;4422509;32;20110;-68
2022/12/15 03:09:11;;;;;;;1.10;1.08;;;-7.30;99.90;;;;;;4422335;32;20089;-69
2022/12/15 03:11:36;;;;;;;0.60;0.60;;;-7.30;99.90;;;;;;4392603;32;20843;-67
2022/12/15 03:14:02;;;;;;;4.25;1.67;;;-7.40;99.90;;;;;;4407243;32;20073;-67
2022/12/15 03:16:27;;;;;;;1.95;1.80;;;-7.60;99.90;;;;;;4422979;32;20098;-66
2022/12/15 03:18:53;;;;;;;3.35;3.05;;;-7.70;99.90;;;;;;4423195;32;20077;-67
2022/12/15 03:21:18;;;;;;;1.17;1.17;;;-7.80;99.90;;;;;;4423032;32;20109;-66
2022/12/15 03:23:44;;;;;;;3.90;2.65;;;-7.80;99.90;;;;;;4424230;32;20586;-67
2022/12/15 03:26:10;;;;;;;23.20;2.90;;;-7.70;99.90;;;;;;4422559;32;20105;-67
2022/12/15 03:28:36;;;;;;;1.33;1.20;;;-7.50;99.90;;;;;;4421627;32;20082;-68
2022/12/15 03:31:01;;;;;;;1.73;1.62;;;-7.60;99.90;;;;;;4401843;32;20093;-67
2022/12/15 03:33:27;;;;;;;1.98;1.87;;;-7.50;99.90;;;;;;4420581;32;20558;-67
2022/12/15 03:35:52;;;;;;;0.85;0.82;;;-7.40;99.90;;;;;;4422516;32;20078;-69
2022/12/15 03:38:18;;;;;;;1.25;1.20;;;-7.40;99.90;;;;;;4423375;32;20223;-66
2022/12/15 03:40:43;;;;;;;5.70;2.15;;;-7.40;99.90;;;;;;4406287;32;20065;-67
2022/12/15 03:43:08;;;;;;;3.80;3.08;;;-7.30;99.90;;;;;;4397146;32;20080;-68
2022/12/15 03:45:34;;;;;;;1.00;1.00;;;-7.40;99.90;;;;;;4416725;32;20105;-66
2022/12/15 03:47:59;;;;;;;5.28;2.33;;;-7.40;99.90;;;;;;4422805;32;20113;-67
2022/12/15 03:50:27;;;;;;;1.62;1.52;;;-7.40;99.90;;;;;;4422096;32;20145;-68
2022/12/15 03:52:55;;;;;;;1.77;1.67;;;-7.40;99.90;;;;;;4422175;32;20086;-68
2022/12/15 03:55:21;;;;;;;2.17;2.00;;;-7.40;99.90;;;;;;4423331;32;20082;-67
2022/12/15 03:57:47;;;;;;;2.15;2.05;;;-7.40;99.90;;;;;;4423456;32;20129;-67
2022/12/15 04:00:14;;;;;;;1.90;1.77;;;-7.50;99.90;;;;;;4406983;32;20810;-67
2022/12/15 04:02:42;;;;;;;3.30;2.85;;;-7.60;99.90;;;;;;4412719;32;20533;-67
2022/12/15 04:05:16;;;;;;;0.90;0.90;;;-7.60;99.90;;;;;;4423910;32;20077;-66
2022/12/15 04:07:42;;;;;;;1.67;1.58;;;-7.60;99.90;;;;;;4422497;32;20187;-68
2022/12/15 04:10:10;;;;;;;8.35;3.83;;;-7.50;99.90;;;;;;4413735;32;20227;-67
2022/12/15 04:12:38;;;;;;;1.27;1.25;;;-7.50;99.90;;;;;;4394625;32;20101;-67
2022/12/15 04:15:06;;;;;;;1.48;1.37;;;-7.60;99.90;;;;;;4413348;32;20077;-67
2022/12/15 04:17:32;;;;;;;1.62;1.52;;;-8.00;99.90;;;;;;4422305;32;20061;-67
2022/12/15 04:20:13;;;;;;;0.80;0.80;;;-8.10;99.90;;;;;;4422625;32;20089;-67
2022/12/15 04:22:41;;;;;;;1.92;1.80;;;-8.00;99.90;;;;;;4422346;32;20104;-68
2022/12/15 05:32:02;;;;;;;4.25;2.50;;;-7.60;99.90;;;;;;4358392;32;21870;-66
2022/12/15 05:34:25;;;;;;;1.50;1.40;;;-7.70;99.90;;;;;;4363491;32;20081;-67
2022/12/15 05:36:52;;;;;;;1.90;1.20;;;-7.60;99.90;;;;;;4393477;32;20155;-66
2022/12/15 05:39:18;;;;;;;3.85;3.03;;;-7.50;99.90;;;;;;4423318;32;20135;-67
2022/12/15 05:41:43;;;;;;;2.40;2.20;;;-7.40;99.90;;;;;;4394896;32;20085;-66
2022/12/15 05:44:09;;;;;;;2.40;1.12;;;-7.60;99.90;;;;;;4407228;32;20216;-68
2022/12/15 05:46:35;;;;;;;1.15;1.15;;;-7.50;99.90;;;;;;4420842;32;20053;-67
2022/12/15 05:49:04;;;;;;;8.48;4.50;;;-7.60;99.90;;;;;;4420525;32;20406;-69
2022/12/15 05:51:29;;;;;;;0.50;0.50;;;-7.50;99.90;;;;;;4418009;32;20128;-67
2022/12/15 05:53:55;;;;;;;1.45;1.37;;;-7.40;99.90;;;;;;4380386;32;20098;-67
2022/12/15 05:56:20;;;;;;;1.87;1.70;;;-7.30;99.90;;;;;;4386363;32;20800;-66
2022/12/15 05:58:46;;;;;;;2.35;2.15;;;-7.40;99.90;;;;;;4418833;32;20124;-66
2022/12/15 06:01:14;;;;;;;2.10;1.70;;;-7.50;99.90;;;;;;4394778;32;20093;-67
2022/12/15 06:03:40;;;;;;;1.50;1.40;;;-7.60;99.90;;;;;;4403235;32;20901;-66
2022/12/15 06:06:08;;;;;;;1.30;1.20;;;-7.70;99.90;;;;;;4393363;32;20080;-67
2022/12/15 06:08:35;;;;;;;2.35;2.08;;;-7.80;99.90;;;;;;4388028;32;20089;-68
2022/12/15 06:11:02;;;;;;;3.67;1.48;;;-8.00;99.90;;;;;;4374480;32;20247;-68
2022/12/15 06:13:33;;;;;;;0.57;0.57;;;-7.90;99.90;;;;;;4367961;32;20613;-66
2022/12/15 06:16:12;;;;;;;0.82;0.82;;;-7.80;99.90;;;;;;4387552;32;20591;-66
2022/12/15 06:18:40;;;;;;;0.77;0.77;;;-7.90;99.90;;;;;;4344719;32;20241;-66
2022/12/15 06:21:09;;;;;;;3.83;2.85;;;-7.90;99.90;;;;;;4347244;32;20352;-66
2022/12/15 06:23:35;;;;;;;3.30;1.20;;;-7.80;99.90;;;;;;4323026;32;20421;-66
2022/12/15 06:26:12;;;;;;;0.80;0.80;;;-7.80;99.90;;;;;;4331938;32;20368;-66
2022/12/15 06:28:38;;;;;;;1.42;1.35;;;-7.80;99.90;;;;;;4342397;32;20503;-66
2022/12/15 06:31:07;;;;;;;0.70;0.70;;;-7.90;99.90;;;;;;4306946;32;20164;-66
2022/12/15 06:33:33;;;;;;;0.60;0.60;;;-7.90;99.90;;;;;;4345920;32;20077;-66
2022/12/15 06:36:09;;;;;;;0.60;0.60;;;-8.10;99.90;;;;;;4352576;32;20429;-66
2022/12/15 06:38:36;;;;;;;0.90;0.90;;;-8.10;99.90;;;;;;4362202;32;20337;-65
2022/12/15 06:41:04;;;;;;;2.78;1.35;;;-7.90;99.90;;;;;;4353879;32;20178;-67
2022/12/15 06:43:32;;;;;;;0.62;0.62;;;-7.80;99.90;;;;;;4365914;32;20081;-66
2022/12/15 06:45:58;;;;;;;1.20;1.20;;;-7.90;99.90;;;;;;4379754;32;20621;-66
2022/12/15 06:48:24;;;;;;;1.65;1.55;;;-8.10;99.90;;;;;;4393908;32;21475;-66
2022/12/15 06:50:50;;;;;;;0.98;0.98;;;-8.00;99.90;;;;;;4401325;32;20148;-66
2022/12/15 06:53:17;;;;;;;2.40;1.95;;;-8.00;99.90;;;;;;4404578;32;20069;-67
2022/12/15 06:55:44;;;;;;;0.80;0.80;;;-8.00;99.90;;;;;;4419682;32;20113;-67
2022/12/15 06:58:12;;;;;;;1.10;1.10;;;-8.00;99.90;;;;;;4412791;32;20183;-67
2022/12/15 07:00:38;;;;;;;1.65;0.82;;;-8.10;99.90;;;;;;4398963;32;20113;-67
2022/12/15 07:03:08;;;;;;;1.42;1.33;;;-8.00;99.90;;;;;;4391488;32;20093;-67
2022/12/15 07:05:34;;;;;;;0.80;0.80;;;-8.00;99.90;;;;;;4399856;32;20431;-67
2022/12/15 07:07:59;;;;;;;1.55;1.45;;;-8.10;99.90;;;;;;4393870;32;20117;-66
2022/12/15 07:10:26;;;;;;;0.60;0.60;;;-7.90;99.90;;;;;;4416836;32;20183;-66
2022/12/15 07:12:51;;;;;;;0.90;0.90;;;-7.80;99.90;;;;;;4408552;32;21288;-65
2022/12/15 07:15:17;;;;;;;0.50;0.50;;;-7.80;99.90;;;;;;4407790;32;20121;-67
2022/12/15 07:17:42;;;;;;;4.85;2.65;;;-7.80;99.90;;;;;;4413365;32;20408;-67
2022/12/15 07:20:08;;;;;;;0.90;0.90;;;-7.70;99.90;;;;;;4395107;32;20484;-67
2022/12/15 07:22:34;;;;;;;2.28;2.08;;;-7.60;99.90;;;;;;4403316;32;20105;-66
2022/12/15 07:24:59;;;;;;;3.40;2.58;;;-7.80;99.90;;;;;;4407759;32;20101;-66
2022/12/15 07:27:25;;;;;;;0.65;0.65;;;-7.80;99.90;;;;;;4414469;32;20150;-66
2022/12/15 07:29:51;;;;;;;0.68;0.68;;;-7.90;99.90;;;;;;4405615;32;20136;-66
2022/12/15 07:32:17;;;;;;;2.47;1.87;;;-7.90;99.90;;;;;;4392467;32;84012;-67
2022/12/15 07:34:44;;;;;;;1.58;1.48;;;-7.90;99.90;;;;;;4386304;32;20150;-66
2022/12/15 07:37:10;;;;;;;4.60;3.50;;;-7.90;99.90;;;;;;4404557;32;20172;-65
2022/12/15 07:39:35;;;;;;;3.58;1.90;;;-8.00;99.90;;;;;;4415444;32;20106;-65
2022/12/15 07:42:01;;;;;;;0.70;0.70;;;-8.10;99.90;;;;;;4418386;32;20085;-65
2022/12/15 07:44:27;;;;;;;4.07;2.95;;;-7.90;99.90;;;;;;4417107;32;20073;-65
2022/12/15 07:46:53;;;;;;;1.87;1.73;;;-7.80;99.90;;;;;;4420798;32;20077;-65
2022/12/15 07:49:19;;;;;;;1.10;1.10;;;-7.80;99.90;;;;;;4412446;32;20070;-65
2022/12/15 07:51:44;;;;;;;1.98;1.83;;;-7.70;99.90;;;;;;4413553;32;20540;-65
2022/12/15 07:54:12;;;;;;;0.82;0.82;;;-7.60;99.90;;;;;;4406120;32;20081;-66
2022/12/15 07:56:38;;;;;;;1.40;1.27;;;-7.60;99.90;;;;;;4426976;32;20620;-65
2022/12/15 07:59:04;;;;;;;0.93;0.93;;;-7.70;99.90;;;;;;4417194;32;20089;-64
2022/12/15 08:01:30;;;;;;;1.42;1.35;;;-7.80;99.90;;;;;;4404885;32;20110;-66
2022/12/15 08:03:55;;;;;;;2.47;2.15;;;-7.90;99.90;;;;;;4399583;32;20200;-66
2022/12/15 08:06:21;;;;;;;0.60;0.60;;;-7.90;99.90;;;;;;4414863;32;20081;-65
2022/12/15 08:08:47;;;;;;;1.90;1.80;;;-7.80;99.90;;;;;;4413518;32;20140;-65
2022/12/15 08:11:15;;;;;;;0.98;0.98;;;-7.80;99.90;;;;;;4417320;32;20277;-65
2022/12/15 08:13:42;;;;;;;1.80;1.70;;;-7.60;99.90;;;;;;4408466;32;20061;-65
2022/12/15 08:16:08;;;;;;;1.23;1.20;;;-7.60;99.90;;;;;;4404583;32;20907;-64
2022/12/15 08:18:34;;;;;;;0.80;0.80;;;-7.50;99.90;;;;;;4416420;32;20198;-65
2022/12/15 08:21:04;;;;;;;0.93;0.93;;;-7.50;99.90;;;;;;4393195;32;20076;-65
2022/12/15 08:23:30;;;;;;;0.50;0.50;;;-7.50;99.90;;;;;;4399894;32;20958;-65
2022/12/15 08:26:02;;;;;;;0.62;0.62;;;-7.50;99.90;;;;;;4419608;32;21160;-65
2022/12/15 08:28:27;;;;;;;1.05;1.00;;;-7.60;99.90;;;;;;4422036;27;20482;-75
2022/12/15 08:30:53;;;;;;;2.22;2.08;;;-7.40;99.90;;;;;;4367274;32;20752;-75
2022/12/15 08:33:18;;;;;;;0.70;0.70;;;-7.50;99.90;;;;;;4353115;32;20151;-75
2022/12/15 08:35:44;;;;;;;20.80;2.17;;;-7.40;99.90;;;;;;4361906;32;20125;-76
2022/12/15 08:38:16;;;;;;;1.15;1.02;;;-7.40;99.90;;;;;;4375385;32;20473;-75
2022/12/15 08:40:46;;;;;;;1.58;1.48;;;-7.30;99.90;;;;;;4381247;32;20561;-75
2022/12/15 08:43:11;;;;;;;5.03;3.05;;;-7.20;99.90;;;;;;4396341;32;20281;-76
2022/12/15 08:45:39;;;;;;;1.12;1.12;;;-7.10;99.90;;;;;;4385824;32;21136;-75
2022/12/15 08:48:05;;;;;;;2.92;2.28;;;-7.10;99.90;;;;;;4375942;32;20807;-75
2022/12/15 08:50:30;;;;;;;0.77;0.77;;;-6.90;99.90;;;;;;4358011;32;20268;-74
2022/12/15 08:52:56;;;;;;;1.15;1.15;;;-6.80;99.90;;;;;;4351611;32;20477;-74
2022/12/15 08:55:22;;;;;;;0.52;0.52;;;-6.90;99.90;;;;;;4361111;32;20101;-73
2022/12/15 08:57:48;;;;;;;8.88;3.22;;;-6.90;99.90;;;;;;4369110;32;20109;-74
2022/12/15 09:00:14;;;;;;;3.67;1.75;;;-6.80;99.90;;;;;;4368848;32;20154;-74
2022/12/15 09:02:40;;;;;;;0.60;0.60;;;-6.70;99.90;;;;;;4354268;32;21275;-74
2022/12/15 09:05:06;;;;;;;0.75;0.75;;;-6.60;99.90;;;;;;4348719;32;20469;-74
2022/12/15 09:07:32;;;;;;;2.25;2.05;;;-6.60;99.90;;;;;;4367682;32;20238;-75
2022/12/15 09:09:57;;;;;;;1.12;1.12;;;-6.60;99.90;;;;;;4370381;32;20109;-74
2022/12/15 09:12:23;;;;;;;1.33;1.27;;;-6.50;99.90;;;;;;4369754;32;20154;-73
2022/12/15 09:14:48;;;;;;;1.35;1.25;;;-6.40;99.90;;;;;;4364829;32;20094;-74
2022/12/15 09:17:14;;;;;;;1.00;1.00;;;-6.30;99.90;;;;;;4368917;32;20085;-73
2022/12/15 09:19:40;;;;;;;0.60;0.60;;;-6.40;99.90;;;;;;4362217;32;20074;-73
2022/12/15 09:22:06;;;;;;;0.50;0.50;;;-6.40;99.90;;;;;;4356734;32;20184;-72
2022/12/15 09:24:32;;;;;;;1.12;0.95;;;-6.40;99.90;;;;;;4357213;32;20113;-73
2022/12/15 09:26:57;;;;;;;2.03;1.25;;;-6.30;99.90;;;;;;4358624;32;20093;-75
2022/12/15 09:29:23;;;;;;;1.85;1.55;;;-6.30;99.90;;;;;;4361090;32;20101;-73
2022/12/15 09:31:49;;;;;;;0.70;0.70;;;-6.10;99.90;;;;;;4350600;32;20128;-73
2022/12/15 09:34:14;;;;;;;1.00;1.00;;;-6.00;99.90;;;;;;4337056;32;20258;-75
2022/12/15 09:36:40;;;;;;;1.98;1.48;;;-6.00;99.90;;;;;;4350451;32;21317;-73
2022/12/15 09:39:07;;;;;;;0.80;0.80;;;-5.80;99.90;;;;;;4358894;32;20085;-75
2022/12/15 09:41:34;;;;;;;3.45;2.25;;;-5.80;99.90;;;;;;4360289;32;20460;-73
2022/12/15 09:44:07;;;;;;;0.45;0.45;;;-5.70;99.90;;;;;;4364572;32;21095;-74
2022/12/15 09:46:39;;;;;;;2.17;1.52;;;-5.50;99.90;;;;;;4372045;32;20098;-75
2022/12/15 09:49:29;;;;;;;1.52;1.48;;;-5.40;99.90;;;;;;4363093;32;20240;-73
2022/12/15 09:51:59;;;;;;;;;;;-5.50;99.90;;;;;;4356594;32;20845;-75
2022/12/15 09:54:30;;;;;;;0.65;0.65;;;-5.30;99.90;;;;;;4350302;32;19985;-74
2022/12/15 09:56:58;;;;;;;0.50;0.50;;;-5.30;99.90;;;;;;4367641;32;20098;-74
2022/12/15 10:00:06;;;;;;;0.50;0.50;;;-5.20;99.90;;;;;;4363246;32;20084;-74
2022/12/15 10:02:57;;;;;;;0.93;0.93;;;-5.10;99.90;;;;;;4352722;32;20326;-73
2022/12/15 10:05:36;;;;;;;1.10;1.10;;;-5.00;99.90;;;;;;4341891;32;21067;-73
2022/12/15 10:08:02;;;;;;;1.80;1.62;;;-4.90;99.90;;;;;;4337332;32;20265;-73
2022/12/15 10:10:33;;;;;;;0.70;0.70;;;-4.90;99.90;;;;;;4369999;32;20097;-74
2022/12/15 10:13:03;;;;;;;0.88;0.88;;;-4.80;99.90;;;;;;4361898;32;20310;-74
2022/12/15 10:15:54;;;;;;;1.17;1.17;;;-4.70;99.90;;;;;;4372543;32;21284;-74
2022/12/15 10:18:25;;;;;;;7.32;1.58;;;-4.60;99.90;;;;;;4349060;32;20398;-74
2022/12/15 10:20:54;;;;;;;0.90;0.90;;;-4.50;99.90;;;;;;4342515;32;20656;-74
2022/12/15 10:23:19;;;;;;;0.65;0.65;;;-4.50;99.90;;;;;;4336859;32;20220;-75
2022/12/15 10:25:48;;;;;;;0.57;0.57;;;-4.50;99.90;;;;;;4329045;32;20655;-74
2022/12/15 10:28:17;;;;;;;2.65;1.17;;;-4.40;99.90;;;;;;4340746;32;20446;-75
2022/12/15 10:30:57;;;;;;;4.32;2.58;;;-4.30;99.90;;;;;;4333086;32;20726;-75
2022/12/15 10:33:26;;;;;;;1.27;1.17;;;-4.10;99.90;;;;;;4347174;32;21091;-75
2022/12/15 10:35:53;;;;;;;0.65;0.65;;;-4.30;99.90;;;;;;4349593;32;20102;-75
2022/12/15 10:38:42;;;;;;;0.60;0.60;;;-4.20;99.90;;;;;;4367064;32;20463;-75
2022/12/15 10:41:11;;;;;;;0.57;0.57;;;-4.10;99.90;;;;;;4358796;32;21467;-76
2022/12/15 10:43:39;;;;;;;2.45;2.25;;;-3.90;99.90;;;;;;4347952;32;20526;-74
2022/12/15 10:46:13;;;;;;;1.00;1.00;;;-3.60;99.90;;;;;;4369683;32;20118;-74
2022/12/15 10:48:39;;;;;;;0.45;0.45;;;-3.60;99.90;;;;;;4369458;32;20656;-75
2022/12/15 10:51:28;;;;;;;0.70;0.70;;;-3.60;99.90;;;;;;4356847;32;20093;-74
2022/12/15 10:54:03;;;;;;;2.28;1.75;;;-3.80;99.90;;;;;;4348661;32;20096;-76
2022/12/15 10:56:30;;;;;;;0.80;0.80;;;-3.60;99.90;;;;;;4365584;32;20518;-74
2022/12/15 10:59:00;;;;;;;0.73;0.73;;;-3.50;99.90;;;;;;4362825;32;20592;-75
2022/12/15 11:01:29;;;;;;;1.50;1.40;;;-3.30;99.90;;;;;;4361672;32;20104;-74
2022/12/15 11:03:55;;;;;;;0.90;0.90;;;-3.20;99.90;;;;;;4356346;32;20223;-74
2022/12/15 11:06:24;;;;;;;0.77;0.77;;;-3.30;99.90;;;;;;4358302;32;20109;-75
2022/12/15 11:08:54;;;;;;;0.60;0.60;;;-3.30;99.90;;;;;;4372020;32;20720;-74
2022/12/15 11:13:01;;;;;;;3.60;2.35;;;-3.40;99.90;;;;;;4376758;32;20093;-73
2022/12/15 11:14:19;;;;;;;1.08;1.08;;;-3.50;99.90;;;;;;4357500;32;20784;-74
2022/12/15 11:16:49;;;;;;;17.05;2.67;;;-3.60;99.90;;;;;;4361019;32;20122;-75
2022/12/15 11:19:30;;;;;;;0.65;0.65;;;-3.50;99.90;;;;;;4349896;32;20104;-77
2022/12/15 11:22:05;;;;;;;2.00;1.87;;;-3.20;99.90;;;;;;4358989;32;20110;-76
2022/12/15 11:24:42;;;;;;;10.55;1.75;;;-3.20;99.90;;;;;;4372961;32;20537;-76
2022/12/15 11:27:25;;;;;;;5.37;1.70;;;-3.10;99.90;;;;;;4377887;32;20069;-76
2022/12/15 11:30:12;;;;;;;2.55;1.73;;;-3.10;99.90;;;;;;4356906;32;20806;-76
2022/12/15 11:32:41;;;;;;;0.50;0.50;;;-3.10;99.90;;;;;;4362750;32;20069;-77
2022/12/15 11:35:21;;;;;;;1.80;1.58;;;-3.00;99.90;;;;;;4370799;32;20098;-76
2022/12/15 11:37:58;;;;;;;1.55;1.42;;;-2.90;99.90;;;;;;4372631;32;20090;-78
2022/12/15 11:40:32;;;;;;;1.83;1.67;;;-2.80;99.90;;;;;;4381820;32;20156;-78
2022/12/15 11:43:36;;;;;;;0.82;0.82;;;-2.70;99.90;;;;;;4385379;32;20093;-76
2022/12/15 11:46:22;;;;;;;0.60;0.60;;;-2.60;99.90;;;;;;4380100;32;20450;-77
2022/12/15 11:49:05;;;;;;;0.85;0.85;;;-2.50;99.90;;;;;;4370811;32;20114;-79
2022/12/15 11:51:45;;;;;;;7.15;3.05;;;-2.30;99.90;;;;;;4367729;32;20061;-76
2022/12/15 11:54:34;;;;;;;0.65;0.65;;;-2.20;99.90;;;;;;4353626;32;20113;-77
2022/12/15 11:57:28;;;;;;;0.60;0.60;;;-1.90;99.90;;;;;;4343773;32;20098;-76
2022/12/15 12:00:03;;;;;;;0.82;0.82;;;-1.40;99.90;;;;;;4352254;32;20122;-74
2022/12/15 12:02:57;;;;;;;0.50;0.50;;;-1.10;99.90;;;;;;4348126;32;20089;-76
2022/12/15 12:05:47;;;;;;;14.00;2.33;;;-0.70;99.90;;;;;;4345130;32;20689;-76
2022/12/15 12:08:29;;;;;;;2.40;2.20;;;-0.80;99.90;;;;;;4364899;32;20617;-76
2022/12/15 12:11:09;;;;;;;1.35;1.25;;;-0.60;99.90;;;;;;4370365;32;20105;-76
2022/12/15 12:13:42;;;;;;;0.60;0.60;;;-0.60;99.90;;;;;;4370025;32;20529;-75
2022/12/15 12:16:34;;;;;;;0.62;0.62;;;-0.70;99.90;;;;;;4357077;32;20760;-75
2022/12/15 12:19:05;;;;;;;0.80;0.80;;;-0.70;99.90;;;;;;4354072;32;20301;-76
2022/12/15 12:21:39;;;;;;;1.20;1.12;;;-0.60;99.90;;;;;;4349137;32;20105;-75
2022/12/15 12:24:13;;;;;;;1.05;1.05;;;-0.30;99.90;;;;;;4355365;32;20184;-77
2022/12/15 12:26:45;;;;;;;0.80;0.80;;;0.00;99.90;;;;;;4355091;32;20097;-76
2022/12/15 12:29:21;;;;;;;2.35;1.80;;;0.30;99.90;;;;;;4363594;32;20498;-76
2022/12/15 12:32:06;;;;;;;1.80;1.50;;;0.50;99.90;;;;;;4350886;32;20106;-75
2022/12/15 12:34:39;;;;;;;7.25;1.50;;;0.60;99.90;;;;;;4333000;32;20102;-75
2022/12/15 12:37:17;;;;;;;1.42;1.33;;;0.80;99.90;;;;;;4366143;32;20090;-75
2022/12/15 12:39:43;;;;;;;1.37;1.15;;;1.00;99.90;;;;;;4362933;32;20101;-75
2022/12/15 12:42:20;;;;;;;6.07;1.70;;;1.00;99.90;;;;;;4353994;32;20634;-74
2022/12/15 12:44:45;;;;;;;3.72;2.08;;;1.00;99.90;;;;;;4354571;32;20111;-75
2022/12/15 12:47:20;;;;;;;0.82;0.82;;;1.00;99.90;;;;;;4363862;32;20085;-75
2022/12/15 12:49:50;;;;;;;2.00;1.80;;;1.10;99.90;;;;;;4369666;32;20636;-76
2022/12/15 12:52:22;;;;;;;2.65;1.35;;;1.10;99.90;;;;;;4378389;32;20098;-77
2022/12/15 12:54:55;;;;;;;0.70;0.70;;;1.10;99.90;;;;;;4378708;32;20126;-75
2022/12/15 12:57:39;;;;;;;2.80;2.08;;;1.00;99.90;;;;;;4377520;32;20061;-75
2022/12/15 13:00:18;;;;;;;0.68;0.68;;;1.20;99.90;;;;;;4353374;32;20334;-75
2022/12/15 13:02:53;;;;;;;1.92;1.80;;;1.20;99.90;;;;;;4368381;32;20881;-76
2022/12/15 13:05:32;;;;;;;1.77;1.42;;;1.00;99.90;;;;;;4374831;32;20120;-75
2022/12/15 13:08:07;;;;;;;1.77;1.48;;;0.90;99.90;;;;;;4388769;32;20157;-75
2022/12/15 13:10:36;;;;;;;0.73;0.73;;;0.90;99.90;;;;;;4372270;32;20113;-75
2022/12/15 13:13:29;;;;;;;0.70;0.70;;;0.90;99.90;;;;;;4381021;32;20205;-76
2022/12/15 13:16:21;;;;;;;1.27;1.23;;;0.80;99.90;;;;;;4377506;32;20182;-76
2022/12/15 13:19:05;;;;;;;0.95;0.95;;;0.50;99.90;;;;;;4373414;32;20288;-75
2022/12/15 13:21:52;;;;;;;5.22;1.87;;;0.50;99.90;;;;;;4362645;32;20499;-75
2022/12/15 13:24:40;;;;;;;1.67;1.58;;;0.30;99.90;;;;;;4359409;32;20101;-76
2022/12/15 13:27:12;;;;;;;1.08;1.08;;;0.20;99.90;;;;;;4384339;32;21190;-76
2022/12/15 13:30:00;;;;;;;3.22;2.25;;;0.00;99.90;;;;;;4377946;32;20424;-76
2022/12/15 13:32:45;;;;;;;0.62;0.62;;;0.10;99.90;;;;;;4372639;32;20127;-75
2022/12/15 13:35:14;;;;;;;4.03;2.25;;;0.30;99.90;;;;;;4363398;32;20101;-74
2022/12/15 13:37:44;;;;;;;0.47;0.47;;;0.30;99.90;;;;;;4377246;32;20108;-76
2022/12/15 13:40:32;;;;;;;7.90;1.33;;;0.10;99.90;;;;;;4389214;32;20461;-75
2022/12/15 13:43:06;;;;;;;0.93;0.93;;;0.10;99.90;;;;;;4383111;32;20267;-75
2022/12/15 13:45:38;;;;;;;0.65;0.65;;;0.10;99.90;;;;;;4385332;32;21071;-75
2022/12/15 13:48:27;;;;;;;0.80;0.80;;;-0.10;99.90;;;;;;4379843;32;20054;-75
2022/12/15 13:51:17;;;;;;;0.70;0.70;;;-0.20;99.90;;;;;;4354361;32;20071;-75
2022/12/15 13:53:46;;;;;;;1.58;1.48;;;-0.30;99.90;;;;;;4364866;32;20105;-77
2022/12/15 13:56:27;;;;;;;0.82;0.82;;;-0.50;99.90;;;;;;4378766;32;20114;-75
2022/12/15 13:59:02;;;;;;;1.75;1.40;;;-0.50;99.90;;;;;;4376987;32;20369;-76
2022/12/15 14:01:30;;;;;;;1.20;1.10;;;-0.50;99.90;;;;;;4365835;32;20122;-75
2022/12/15 14:04:14;;;;;;;0.50;0.50;;;-0.50;99.90;;;;;;4365151;32;20171;-75
2022/12/15 14:06:59;;;;;;;1.10;1.10;;;-0.50;99.90;;;;;;4370679;32;20176;-74
2022/12/15 14:09:31;;;;;;;22.95;2.25;;;-0.50;99.90;;;;;;4372213;32;20401;-75
2022/12/15 14:11:57;;;;;;;3.72;1.70;;;-0.50;99.90;;;;;;4377648;32;20130;-76
2022/12/15 14:14:27;;;;;;;3.53;1.83;;;-0.50;99.90;;;;;;4382217;32;20118;-75
2022/12/15 14:16:58;;;;;;;1.00;1.00;;;-0.70;99.90;;;;;;4377816;32;20126;-75
2022/12/15 14:19:24;;;;;;;1.27;1.23;;;-0.70;99.90;;;;;;4364649;32;20382;-74
2022/12/15 14:21:53;;;;;;;6.22;1.77;;;-0.70;99.90;;;;;;4362729;32;20217;-75
2022/12/15 14:24:26;;;;;;;1.42;1.35;;;-0.80;99.90;;;;;;4362863;32;20438;-75
2022/12/15 14:26:52;;;;;;;0.88;0.88;;;-0.90;99.90;;;;;;4384863;32;22194;-75
2022/12/15 14:29:18;;;;;;;0.73;0.73;;;-0.90;99.90;;;;;;4373861;32;20844;-75
2022/12/15 14:31:52;;;;;;;2.37;2.15;;;-1.00;99.90;;;;;;4371003;32;20125;-75
2022/12/15 14:34:30;;;;;;;3.00;2.15;;;-1.20;99.90;;;;;;4373753;32;20455;-75
2022/12/15 14:37:01;;;;;;;2.50;0.93;;;-1.30;99.90;;;;;;4376000;32;20269;-73
2022/12/15 14:39:33;;;;;;;0.75;0.75;;;-1.20;99.90;;;;;;4390636;32;20127;-75
2022/12/15 14:42:00;;;;;;;0.60;0.60;;;-1.30;99.90;;;;;;4381953;32;20279;-74
2022/12/15 14:44:31;;;;;;;0.85;0.85;;;-1.40;99.90;;;;;;4380865;32;20237;-75
2022/12/15 14:46:59;;;;;;;0.88;0.88;;;-1.40;99.90;;;;;;4375828;32;20160;-75
2022/12/15 14:49:28;;;;;;;14.60;2.37;;;-1.50;99.90;;;;;;4367923;32;20210;-76
2022/12/15 14:52:00;;;;;;;2.20;1.48;;;-1.50;99.90;;;;;;4371415;32;20078;-74
2022/12/15 14:54:34;;;;;;;0.60;0.60;;;-1.50;99.90;;;;;;4371648;32;20110;-74
2022/12/15 14:57:10;;;;;;;0.60;0.60;;;-1.70;99.90;;;;;;4382442;32;20101;-75
2022/12/15 14:59:40;;;;;;;0.82;0.80;;;-1.70;99.90;;;;;;4374760;32;20787;-74
2022/12/15 15:02:16;;;;;;;1.23;0.97;;;-1.80;99.90;;;;;;4365467;32;20871;-74
2022/12/15 15:04:41;;;;;;;0.90;0.90;;;-1.80;99.90;;;;;;4369349;32;20065;-74
2022/12/15 15:07:16;;;;;;;0.75;0.75;;;-1.90;99.90;;;;;;4379522;32;20109;-75
2022/12/15 15:09:43;;;;;;;2.62;1.00;;;-2.00;99.90;;;;;;4388021;32;20069;-75
2022/12/15 15:12:16;;;;;;;1.25;1.15;;;-2.00;99.90;;;;;;4382193;32;20106;-75
2022/12/15 15:14:45;;;;;;;1.02;1.02;;;-2.10;99.90;;;;;;4386560;32;20175;-75
2022/12/15 15:17:15;;;;;;;0.60;0.60;;;-2.00;99.90;;;;;;4381791;32;20077;-75
2022/12/15 15:20:00;;;;;;;1.95;1.85;;;-2.10;99.90;;;;;;4370142;32;20098;-74